Time;durP1;ratioP1;P1;durP2;ratioP2;P2;SDS_P1;SDS_P2;PMS_P1;PMS_P2;Temp;Humidity;BMP_temperature;BMP_pressure;BME280_temperature;BME280_humidity;BME280_pressure;Samples;Min_cycle;Max_cycle;Signal;HPM_P1;HPM_P2
2023/07/06 00:01:37;;;;;;;7.85;5.28;;;;;;;;;;5092444;28;20047;-67
2023/07/06 00:04:02;;;;;;;8.38;4.93;;;;;;;;;;5082143;28;20023;-67
2023/07/06 00:06:28;;;;;;;8.95;4.75;;;;;;;;;;5086188;28;20471;-67
2023/07/06 00:08:53;;;;;;;7.88;5.18;;;;;;;;;;5089172;28;20016;-67
2023/07/06 00:11:20;;;;;;;7.60;5.07;;;;;;;;;;5090465;28;20034;-67
2023/07/06 00:13:45;;;;;;;9.98;6.03;;;;;;;;;;5083889;28;20035;-67
2023/07/06 00:16:11;;;;;;;7.55;4.25;;;;;;;;;;5091513;28;20020;-67
2023/07/06 00:18:36;;;;;;;7.95;4.35;;;;;;;;;;5090976;28;20054;-67
2023/07/06 00:21:03;;;;;;;6.00;3.90;;;;;;;;;;5079896;28;20031;-67
2023/07/06 00:23:28;;;;;;;9.07;4.38;;;;;;;;;;5090381;28;20102;-67
2023/07/06 00:25:53;;;;;;;12.75;4.28;;;;;;;;;;5091882;28;20102;-67
2023/07/06 00:28:24;;;;;;;6.87;4.03;;;;;;;;;;5091547;28;20016;-67
2023/07/06 00:33:16;;;;;;;7.07;3.72;;;;;;;;;;5090284;28;20543;-67
2023/07/06 00:35:42;;;;;;;8.40;4.00;;;;;;;;;;5091457;28;20136;-68
2023/07/06 00:38:13;;;;;;;5.85;3.35;;;;;;;;;;5087511;28;20059;-67
2023/07/06 00:40:40;;;;;;;9.07;4.07;;;;;;;;;;5091571;28;20476;-67
2023/07/06 00:43:09;;;;;;;6.80;3.22;;;;;;;;;;5088135;28;20032;-67
2023/07/06 00:45:35;;;;;;;6.93;4.07;;;;;;;;;;5082209;28;20063;-66
2023/07/06 00:48:01;;;;;;;6.90;3.75;;;;;;;;;;5090862;28;20070;-66
2023/07/06 00:50:28;;;;;;;8.90;4.28;;;;;;;;;;5091803;28;20031;-66
2023/07/06 00:52:58;;;;;;;8.50;3.83;;;;;;;;;;5090242;28;20059;-67
2023/07/06 00:55:25;;;;;;;16.63;4.30;;;;;;;;;;5091512;28;20429;-66
2023/07/06 00:57:54;;;;;;;20.60;3.88;;;;;;;;;;5091401;28;20073;-67
2023/07/06 01:00:21;;;;;;;6.65;3.35;;;;;;;;;;5091546;28;20035;-66
2023/07/06 01:02:51;;;;;;;11.32;4.18;;;;;;;;;;5089839;28;20078;-66
2023/07/06 01:05:17;;;;;;;8.82;4.13;;;;;;;;;;5091872;28;20036;-66
2023/07/06 01:07:44;;;;;;;8.35;3.70;;;;;;;;;;5091175;28;20020;-66
2023/07/06 01:10:10;;;;;;;8.38;3.72;;;;;;;;;;5092011;28;20248;-66
2023/07/06 01:12:36;;;;;;;9.52;3.47;;;;;;;;;;5079132;28;20119;-66
2023/07/06 01:15:01;;;;;;;5.68;2.95;;;;;;;;;;5091306;28;20443;-67
2023/07/06 01:17:33;;;;;;;6.10;3.65;;;;;;;;;;5091227;28;20024;-67
2023/07/06 01:20:14;;;;;;;8.75;3.83;;;;;;;;;;5091493;28;20108;-67
2023/07/06 01:22:59;;;;;;;11.05;3.85;;;;;;;;;;5090395;28;20082;-67
2023/07/06 01:25:43;;;;;;;10.85;3.45;;;;;;;;;;5091480;28;20039;-67
2023/07/06 01:28:14;;;;;;;11.35;4.93;;;;;;;;;;5081425;28;20351;-66
2023/07/06 01:30:53;;;;;;;8.63;3.45;;;;;;;;;;5090327;28;20035;-68
2023/07/06 01:33:23;;;;;;;7.15;3.90;;;;;;;;;;5091225;28;20028;-66
2023/07/06 01:36:05;;;;;;;8.60;3.92;;;;;;;;;;5090587;28;20053;-65
2023/07/06 01:38:30;;;;;;;5.57;3.35;;;;;;;;;;5090572;28;20039;-65
2023/07/06 01:40:57;;;;;;;7.90;3.67;;;;;;;;;;5091305;28;20036;-67
2023/07/06 01:43:23;;;;;;;10.48;4.60;;;;;;;;;;5091458;28;20278;-65
2023/07/06 01:45:48;;;;;;;15.65;4.60;;;;;;;;;;5090833;28;20016;-65
2023/07/06 01:48:14;;;;;;;13.05;4.55;;;;;;;;;;5091141;28;20425;-65
2023/07/06 01:50:45;;;;;;;15.27;4.00;;;;;;;;;;5090333;28;20020;-65
2023/07/06 01:53:43;;;;;;;5.78;3.55;;;;;;;;;;5086119;28;20382;-65
2023/07/06 01:56:17;;;;;;;8.30;3.53;;;;;;;;;;5029743;28;20066;-65
2023/07/06 01:58:46;;;;;;;17.20;3.78;;;;;;;;;;5090736;28;20016;-65
2023/07/06 02:01:13;;;;;;;12.00;4.20;;;;;;;;;;5090214;28;20096;-66
2023/07/06 02:03:39;;;;;;;12.30;4.45;;;;;;;;;;5091123;28;20044;-65
2023/07/06 02:06:06;;;;;;;7.88;4.50;;;;;;;;;;5094166;28;20024;-65
2023/07/06 02:08:32;;;;;;;13.63;5.15;;;;;;;;;;5082611;28;20041;-65
2023/07/06 02:10:57;;;;;;;10.13;4.32;;;;;;;;;;5092616;28;20090;-65
2023/07/06 02:13:23;;;;;;;5.90;3.95;;;;;;;;;;5085117;28;20031;-65
2023/07/06 02:15:48;;;;;;;10.65;5.18;;;;;;;;;;5092607;28;20024;-66
2023/07/06 02:18:14;;;;;;;11.30;4.13;;;;;;;;;;5091129;28;20029;-65
2023/07/06 02:20:39;;;;;;;11.30;4.55;;;;;;;;;;5093286;28;20021;-65
2023/07/06 02:23:07;;;;;;;12.23;4.90;;;;;;;;;;5084986;28;20035;-65
2023/07/06 02:25:33;;;;;;;10.70;4.53;;;;;;;;;;5093472;28;20035;-65
2023/07/06 02:27:58;;;;;;;7.03;4.32;;;;;;;;;;5094125;28;20020;-65
2023/07/06 02:30:23;;;;;;;11.20;4.57;;;;;;;;;;5093858;28;20020;-66
2023/07/06 02:32:49;;;;;;;11.63;4.30;;;;;;;;;;5093192;28;20024;-65
2023/07/06 02:35:15;;;;;;;10.05;4.68;;;;;;;;;;5091564;28;20033;-65
2023/07/06 02:37:40;;;;;;;7.43;4.35;;;;;;;;;;5094632;28;20024;-65
2023/07/06 02:40:09;;;;;;;8.88;3.72;;;;;;;;;;5094204;28;20099;-65
2023/07/06 02:42:34;;;;;;;7.30;4.20;;;;;;;;;;5095037;28;20024;-64
2023/07/06 02:45:00;;;;;;;8.85;3.78;;;;;;;;;;5090014;28;20059;-67
2023/07/06 02:47:25;;;;;;;20.20;4.13;;;;;;;;;;5093074;28;20117;-66
2023/07/06 02:49:50;;;;;;;7.28;4.18;;;;;;;;;;5093764;28;20020;-66
2023/07/06 02:52:15;;;;;;;6.55;3.72;;;;;;;;;;5093438;28;20119;-66
2023/07/06 02:54:41;;;;;;;8.43;4.00;;;;;;;;;;5093349;28;20031;-66
2023/07/06 02:57:06;;;;;;;7.20;3.42;;;;;;;;;;5094033;28;20024;-67
2023/07/06 02:59:32;;;;;;;11.70;3.97;;;;;;;;;;5093132;28;20027;-66
2023/07/06 03:02:00;;;;;;;7.53;4.15;;;;;;;;;;5092921;28;20027;-65
2023/07/06 03:04:27;;;;;;;14.43;4.38;;;;;;;;;;5093069;28;20016;-66
2023/07/06 03:06:55;;;;;;;9.57;4.40;;;;;;;;;;5093327;28;20028;-66
2023/07/06 03:09:21;;;;;;;7.28;3.65;;;;;;;;;;5092742;28;20470;-66
2023/07/06 03:11:47;;;;;;;11.30;4.38;;;;;;;;;;5087778;28;20024;-66
2023/07/06 03:14:12;;;;;;;7.43;4.28;;;;;;;;;;5086637;28;20032;-66
2023/07/06 03:16:40;;;;;;;8.25;4.30;;;;;;;;;;5092496;28;20027;-67
2023/07/06 03:19:06;;;;;;;9.55;4.15;;;;;;;;;;5093283;28;20474;-66
2023/07/06 03:21:32;;;;;;;10.70;4.45;;;;;;;;;;5093086;28;20477;-67
2023/07/06 03:23:58;;;;;;;14.20;4.63;;;;;;;;;;5092669;28;20027;-66
2023/07/06 03:26:24;;;;;;;10.45;4.03;;;;;;;;;;5085454;28;20032;-66
2023/07/06 03:28:49;;;;;;;10.93;4.50;;;;;;;;;;5092033;28;20145;-66
2023/07/06 03:31:15;;;;;;;9.20;3.63;;;;;;;;;;5092692;28;20469;-66
2023/07/06 03:33:41;;;;;;;10.95;4.22;;;;;;;;;;5092581;28;20032;-66
2023/07/06 03:36:06;;;;;;;8.35;4.70;;;;;;;;;;5093524;28;20024;-67
2023/07/06 03:38:35;;;;;;;9.50;4.28;;;;;;;;;;5091635;28;20027;-66
2023/07/06 03:41:03;;;;;;;10.82;4.40;;;;;;;;;;5080927;28;20087;-67
2023/07/06 03:43:29;;;;;;;10.55;4.38;;;;;;;;;;5079773;28;20483;-66
2023/07/06 03:45:54;;;;;;;9.70;3.70;;;;;;;;;;5092601;28;20028;-67
2023/07/06 03:48:21;;;;;;;10.27;4.23;;;;;;;;;;5074838;28;20036;-67
2023/07/06 03:50:47;;;;;;;9.60;4.30;;;;;;;;;;5092561;28;20262;-67
2023/07/06 03:53:12;;;;;;;8.73;3.72;;;;;;;;;;5080030;28;20034;-66
2023/07/06 03:55:40;;;;;;;8.63;4.75;;;;;;;;;;5091720;28;20413;-66
2023/07/06 03:58:07;;;;;;;13.40;4.53;;;;;;;;;;5092439;28;20090;-66
2023/07/06 04:00:34;;;;;;;9.48;4.85;;;;;;;;;;5092712;28;20115;-66
2023/07/06 04:03:03;;;;;;;16.58;4.90;;;;;;;;;;5093380;28;20047;-66
2023/07/06 04:05:32;;;;;;;12.43;4.63;;;;;;;;;;5092986;28;20020;-66
2023/07/06 04:07:58;;;;;;;12.65;4.72;;;;;;;;;;5093416;28;20020;-69
2023/07/06 04:10:23;;;;;;;9.82;3.92;;;;;;;;;;5090479;28;20069;-68
2023/07/06 04:12:49;;;;;;;12.30;5.07;;;;;;;;;;5079196;28;20101;-69
2023/07/06 04:15:17;;;;;;;8.95;4.60;;;;;;;;;;5093030;28;20032;-68
2023/07/06 04:17:43;;;;;;;7.65;4.57;;;;;;;;;;5092412;28;20054;-68
2023/07/06 04:20:18;;;;;;;7.93;4.20;;;;;;;;;;5092752;28;20014;-68
2023/07/06 04:22:44;;;;;;;8.25;4.53;;;;;;;;;;5091282;28;20035;-68
2023/07/06 04:25:09;;;;;;;11.00;4.47;;;;;;;;;;5091492;28;20027;-68
2023/07/06 04:27:34;;;;;;;7.88;4.63;;;;;;;;;;5090688;28;20051;-68
2023/07/06 04:30:00;;;;;;;7.15;4.10;;;;;;;;;;5091656;28;20024;-68
2023/07/06 04:32:31;;;;;;;8.18;4.60;;;;;;;;;;5091852;28;20028;-68
2023/07/06 04:34:57;;;;;;;9.98;4.18;;;;;;;;;;5091967;28;20096;-67
2023/07/06 04:37:22;;;;;;;19.10;4.53;;;;;;;;;;5091390;28;20533;-68
2023/07/06 04:39:47;;;;;;;8.32;4.40;;;;;;;;;;5080823;28;20482;-67
2023/07/06 04:42:13;;;;;;;11.55;4.82;;;;;;;;;;5088076;28;20035;-67
2023/07/06 04:44:38;;;;;;;8.82;4.22;;;;;;;;;;5092116;28;20012;-67
2023/07/06 04:47:03;;;;;;;9.32;4.35;;;;;;;;;;5091546;28;20482;-66
2023/07/06 04:49:29;;;;;;;7.05;3.47;;;;;;;;;;5091559;28;20414;-66
2023/07/06 04:51:54;;;;;;;7.95;4.35;;;;;;;;;;5091013;28;20497;-66
2023/07/06 04:54:19;;;;;;;12.13;4.28;;;;;;;;;;5091067;28;20534;-66
2023/07/06 04:56:44;;;;;;;14.10;4.87;;;;;;;;;;5091005;28;20077;-66
2023/07/06 04:59:09;;;;;;;10.07;4.72;;;;;;;;;;5092206;28;20323;-66
2023/07/06 05:01:35;;;;;;;9.93;4.33;;;;;;;;;;5091605;28;20078;-66
2023/07/06 05:04:01;;;;;;;12.10;5.35;;;;;;;;;;5091654;28;20289;-66
2023/07/06 05:06:26;;;;;;;11.90;4.70;;;;;;;;;;5091276;28;20023;-66
2023/07/06 05:08:52;;;;;;;9.03;4.40;;;;;;;;;;5091956;28;20101;-66
2023/07/06 05:11:18;;;;;;;10.00;5.13;;;;;;;;;;5090866;28;20321;-66
2023/07/06 05:13:45;;;;;;;9.02;4.82;;;;;;;;;;5091489;28;20740;-66
2023/07/06 05:16:10;;;;;;;11.30;5.05;;;;;;;;;;5091039;28;20084;-66
2023/07/06 05:18:35;;;;;;;11.35;5.00;;;;;;;;;;5091436;28;20462;-66
2023/07/06 05:21:00;;;;;;;11.88;5.07;;;;;;;;;;5090345;28;20028;-66
2023/07/06 05:23:28;;;;;;;9.07;4.15;;;;;;;;;;5090841;28;20049;-66
2023/07/06 05:25:54;;;;;;;14.30;4.88;;;;;;;;;;5090533;28;20621;-66
2023/07/06 05:28:20;;;;;;;11.65;5.55;;;;;;;;;;5090560;28;20076;-66
2023/07/06 05:30:46;;;;;;;9.60;4.68;;;;;;;;;;5087089;28;20039;-66
2023/07/06 05:33:12;;;;;;;9.20;4.75;;;;;;;;;;5087763;28;20512;-66
2023/07/06 05:35:38;;;;;;;14.50;4.72;;;;;;;;;;5090973;28;20028;-66
2023/07/06 05:38:03;;;;;;;11.98;4.82;;;;;;;;;;5090427;28;20085;-66
2023/07/06 05:40:28;;;;;;;9.60;5.00;;;;;;;;;;5091641;28;20039;-66
2023/07/06 05:42:54;;;;;;;11.30;4.78;;;;;;;;;;5090332;28;20093;-66
2023/07/06 05:45:20;;;;;;;8.40;4.10;;;;;;;;;;5091203;28;20036;-66
2023/07/06 05:47:46;;;;;;;12.25;4.55;;;;;;;;;;5086764;28;20028;-66
2023/07/06 05:50:11;;;;;;;13.82;4.13;;;;;;;;;;5079433;28;20413;-66
2023/07/06 05:52:36;;;;;;;10.88;4.53;;;;;;;;;;5090132;28;20024;-66
2023/07/06 05:55:01;;;;;;;13.48;4.63;;;;;;;;;;5090197;28;20035;-67
2023/07/06 05:57:27;;;;;;;8.25;4.50;;;;;;;;;;5089537;28;20080;-66
2023/07/06 05:59:53;;;;;;;10.52;4.53;;;;;;;;;;5079434;28;20490;-66
2023/07/06 06:02:20;;;;;;;12.80;4.55;;;;;;;;;;5089702;28;20028;-66
2023/07/06 06:04:47;;;;;;;10.70;4.40;;;;;;;;;;5091106;28;20024;-66
2023/07/06 06:07:13;;;;;;;10.82;4.55;;;;;;;;;;5091041;28;20031;-66
2023/07/06 06:09:38;;;;;;;11.85;4.70;;;;;;;;;;5090687;28;20028;-66
2023/07/06 06:12:04;;;;;;;13.70;4.85;;;;;;;;;;5085808;28;20436;-67
2023/07/06 06:14:30;;;;;;;11.50;4.80;;;;;;;;;;5090351;28;20036;-66
2023/07/06 06:16:56;;;;;;;13.13;4.30;;;;;;;;;;5085022;28;20386;-66
2023/07/06 06:19:21;;;;;;;13.38;4.63;;;;;;;;;;5090215;28;20028;-66
2023/07/06 06:21:49;;;;;;;9.85;4.53;;;;;;;;;;5090229;28;20024;-66
2023/07/06 06:24:14;;;;;;;8.50;4.18;;;;;;;;;;5090149;28;20383;-66
2023/07/06 06:26:42;;;;;;;6.13;3.60;;;;;;;;;;5090244;28;20080;-66
2023/07/06 06:29:09;;;;;;;12.50;5.00;;;;;;;;;;5090264;28;20382;-66
2023/07/06 06:31:35;;;;;;;11.55;4.63;;;;;;;;;;5091397;28;20477;-66
2023/07/06 06:34:00;;;;;;;15.05;5.07;;;;;;;;;;5085781;28;20119;-66
2023/07/06 06:36:25;;;;;;;9.45;4.88;;;;;;;;;;5090415;28;20052;-65
2023/07/06 06:38:51;;;;;;;11.63;5.20;;;;;;;;;;5089552;28;21496;-66
2023/07/06 06:41:16;;;;;;;13.35;4.90;;;;;;;;;;5089722;28;20551;-65
2023/07/06 06:43:44;;;;;;;10.77;4.55;;;;;;;;;;5089966;28;20028;-66
2023/07/06 06:46:10;;;;;;;10.50;4.57;;;;;;;;;;5076332;28;20028;-65
2023/07/06 06:48:35;;;;;;;15.85;5.50;;;;;;;;;;5090341;28;20028;-65
2023/07/06 06:51:01;;;;;;;9.65;4.57;;;;;;;;;;5079392;28;20501;-66
2023/07/06 06:53:27;;;;;;;12.52;4.40;;;;;;;;;;5093972;28;20438;-67
2023/07/06 06:55:52;;;;;;;10.50;5.05;;;;;;;;;;5093007;28;20063;-66
2023/07/06 06:58:18;;;;;;;9.35;4.32;;;;;;;;;;5085946;28;20165;-66
2023/07/06 07:00:44;;;;;;;10.98;4.63;;;;;;;;;;5092969;28;20576;-66
2023/07/06 07:03:11;;;;;;;10.98;4.85;;;;;;;;;;5093276;28;20489;-66
2023/07/06 07:05:36;;;;;;;11.23;4.50;;;;;;;;;;5092459;28;20028;-66
2023/07/06 07:08:02;;;;;;;11.07;4.63;;;;;;;;;;5092832;28;20123;-66
2023/07/06 07:10:28;;;;;;;11.18;4.95;;;;;;;;;;5093155;28;20008;-66
2023/07/06 07:12:53;;;;;;;16.27;5.10;;;;;;;;;;5082210;28;20103;-66
2023/07/06 07:15:19;;;;;;;15.98;4.50;;;;;;;;;;5082763;28;20081;-66
2023/07/06 07:17:45;;;;;;;13.10;4.93;;;;;;;;;;5092301;28;20039;-66
2023/07/06 07:20:10;;;;;;;13.77;5.25;;;;;;;;;;5093716;28;20059;-66
2023/07/06 07:22:35;;;;;;;14.60;5.35;;;;;;;;;;5093205;28;20020;-65
2023/07/06 07:25:02;;;;;;;11.00;4.53;;;;;;;;;;5093848;28;20474;-66
2023/07/06 07:27:28;;;;;;;9.98;5.88;;;;;;;;;;5093644;28;20274;-66
2023/07/06 07:29:54;;;;;;;16.23;4.93;;;;;;;;;;5093372;28;20093;-66
2023/07/06 07:32:20;;;;;;;15.65;5.13;;;;;;;;;;5093300;28;20067;-66
2023/07/06 07:34:50;;;;;;;10.45;4.15;;;;;;;;;;5093456;28;20428;-68
2023/07/06 07:37:15;;;;;;;11.60;4.68;;;;;;;;;;5093527;28;20463;-66
2023/07/06 07:39:41;;;;;;;14.38;5.57;;;;;;;;;;5093476;28;20126;-66
2023/07/06 07:42:06;;;;;;;10.38;4.88;;;;;;;;;;5093731;28;20077;-66
2023/07/06 07:44:31;;;;;;;9.87;4.50;;;;;;;;;;5079465;28;20032;-65
2023/07/06 07:46:58;;;;;;;17.95;4.55;;;;;;;;;;5093457;28;20792;-66
2023/07/06 07:49:24;;;;;;;13.57;4.18;;;;;;;;;;5092959;28;20028;-66
2023/07/06 07:51:50;;;;;;;7.18;3.63;;;;;;;;;;5093439;28;20516;-66
2023/07/06 07:54:15;;;;;;;9.43;4.22;;;;;;;;;;5092859;28;20067;-66
2023/07/06 07:56:42;;;;;;;15.93;4.70;;;;;;;;;;5084791;28;20474;-66
2023/07/06 07:59:08;;;;;;;10.82;4.40;;;;;;;;;;5089475;28;20031;-66
2023/07/06 08:01:33;;;;;;;9.93;4.28;;;;;;;;;;5092120;28;20032;-66
2023/07/06 08:03:59;;;;;;;8.68;3.28;;;;;;;;;;5092361;28;20150;-66
2023/07/06 08:06:24;;;;;;;9.52;3.38;;;;;;;;;;5093634;28;20023;-66
2023/07/06 08:08:50;;;;;;;8.88;3.63;;;;;;;;;;5092536;28;20028;-66
2023/07/06 08:11:23;;;;;;;14.75;4.03;;;;;;;;;;5089962;28;20016;-65
2023/07/06 08:13:53;;;;;;;15.20;4.40;;;;;;;;;;5085783;28;20026;-66
2023/07/06 08:16:19;;;;;;;13.90;3.97;;;;;;;;;;5092496;28;20016;-66
2023/07/06 08:18:45;;;;;;;9.98;3.53;;;;;;;;;;5092892;28;20119;-65
2023/07/06 08:21:10;;;;;;;8.63;2.85;;;;;;;;;;5092517;28;20075;-66
2023/07/06 08:23:37;;;;;;;8.88;2.90;;;;;;;;;;5092846;28;20356;-66
2023/07/06 08:26:04;;;;;;;6.90;2.90;;;;;;;;;;5093082;28;20085;-66
2023/07/06 08:28:31;;;;;;;7.15;3.05;;;;;;;;;;5074937;28;20027;-66
2023/07/06 08:31:01;;;;;;;7.40;2.60;;;;;;;;;;5086610;28;20024;-66
2023/07/06 08:33:27;;;;;;;6.05;3.00;;;;;;;;;;5085481;28;20028;-66
2023/07/06 08:35:52;;;;;;;7.93;2.70;;;;;;;;;;5092023;28;20020;-66
2023/07/06 08:38:18;;;;;;;6.72;2.83;;;;;;;;;;5091409;28;20039;-66
2023/07/06 08:40:47;;;;;;;8.13;3.20;;;;;;;;;;5091416;28;20020;-65
2023/07/06 08:43:18;;;;;;;6.03;2.65;;;;;;;;;;5091243;28;20027;-66
2023/07/06 08:45:45;;;;;;;11.73;3.88;;;;;;;;;;5092832;28;20085;-66
2023/07/06 08:48:14;;;;;;;7.05;2.85;;;;;;;;;;5092260;28;20089;-67
2023/07/06 08:50:42;;;;;;;5.60;2.45;;;;;;;;;;5092608;28;20024;-66
2023/07/06 08:53:13;;;;;;;8.70;2.95;;;;;;;;;;5074168;28;20028;-66
2023/07/06 08:55:38;;;;;;;7.53;2.60;;;;;;;;;;5078753;28;20036;-66
2023/07/06 08:58:04;;;;;;;6.65;2.42;;;;;;;;;;5092097;28;20038;-66
2023/07/06 09:00:31;;;;;;;6.25;2.50;;;;;;;;;;5092339;28;20340;-66
2023/07/06 09:03:05;;;;;;;10.95;3.58;;;;;;;;;;5092142;28;20016;-66
2023/07/06 09:05:32;;;;;;;13.13;3.40;;;;;;;;;;5092080;28;20074;-67
2023/07/06 09:07:57;;;;;;;6.13;2.60;;;;;;;;;;5091965;28;20032;-66
2023/07/06 09:10:25;;;;;;;5.45;2.70;;;;;;;;;;5091463;28;20028;-66
2023/07/06 09:12:53;;;;;;;6.13;2.80;;;;;;;;;;5078240;28;20115;-67
2023/07/06 09:15:23;;;;;;;6.57;2.80;;;;;;;;;;5092263;28;20441;-66
2023/07/06 09:17:52;;;;;;;5.75;2.38;;;;;;;;;;5091509;28;20171;-66
2023/07/06 09:20:18;;;;;;;5.45;2.42;;;;;;;;;;5091913;28;20036;-66
2023/07/06 09:22:44;;;;;;;6.20;2.42;;;;;;;;;;5087174;28;20025;-66
2023/07/06 09:25:17;;;;;;;8.73;2.90;;;;;;;;;;5092045;28;20092;-67
2023/07/06 09:27:44;;;;;;;8.05;3.42;;;;;;;;;;5091816;28;20118;-67
2023/07/06 09:30:18;;;;;;;4.85;2.47;;;;;;;;;;5091721;28;20016;-66
2023/07/06 09:32:44;;;;;;;6.05;2.70;;;;;;;;;;5079748;28;20023;-67
2023/07/06 09:35:20;;;;;;;8.45;2.78;;;;;;;;;;5090946;28;20421;-67
2023/07/06 09:37:46;;;;;;;5.28;2.20;;;;;;;;;;5091733;28;20029;-67
2023/07/06 09:40:12;;;;;;;7.75;2.72;;;;;;;;;;5089876;28;20040;-66
2023/07/06 09:42:37;;;;;;;8.18;2.55;;;;;;;;;;5091029;28;20106;-66
2023/07/06 09:45:12;;;;;;;4.97;2.37;;;;;;;;;;5091414;28;20136;-65
2023/07/06 09:47:40;;;;;;;6.55;2.65;;;;;;;;;;5091034;28;20274;-67
2023/07/06 09:50:14;;;;;;;4.13;2.05;;;;;;;;;;5091471;28;20035;-66
2023/07/06 09:52:40;;;;;;;6.97;2.22;;;;;;;;;;5090507;28;20027;-67
2023/07/06 09:55:11;;;;;;;7.40;2.80;;;;;;;;;;5091174;28;20043;-66
2023/07/06 09:57:38;;;;;;;8.45;2.22;;;;;;;;;;5087771;28;20016;-67
2023/07/06 10:00:11;;;;;;;5.10;1.88;;;;;;;;;;5091157;28;20434;-66
2023/07/06 10:02:45;;;;;;;5.78;2.08;;;;;;;;;;5081887;28;20518;-67
2023/07/06 10:05:24;;;;;;;6.60;2.47;;;;;;;;;;5070512;28;20450;-66
2023/07/06 10:08:05;;;;;;;6.45;2.15;;;;;;;;;;5081245;28;20035;-68
2023/07/06 10:10:32;;;;;;;9.70;2.50;;;;;;;;;;5083494;28;20097;-67
2023/07/06 10:13:03;;;;;;;5.10;2.10;;;;;;;;;;5074699;28;20012;-67
2023/07/06 10:15:51;;;;;;;4.60;2.30;;;;;;;;;;5087308;28;20035;-69
2023/07/06 10:18:21;;;;;;;3.72;2.10;;;;;;;;;;5063384;28;20879;-67
2023/07/06 10:20:51;;;;;;;7.88;2.80;;;;;;;;;;5088368;28;20020;-68
2023/07/06 10:23:32;;;;;;;7.85;2.03;;;;;;;;;;5088493;28;20093;-67
2023/07/06 10:26:00;;;;;;;4.90;2.15;;;;;;;;;;5089603;28;20107;-67
2023/07/06 10:28:31;;;;;;;4.10;1.95;;;;;;;;;;5092618;28;20024;-67
2023/07/06 10:30:57;;;;;;;6.50;2.25;;;;;;;;;;5081546;28;20459;-67
2023/07/06 10:33:32;;;;;;;4.03;2.20;;;;;;;;;;5083328;28;20382;-67
2023/07/06 10:35:58;;;;;;;13.77;2.72;;;;;;;;;;5085328;28;20098;-67
2023/07/06 10:38:24;;;;;;;5.80;2.30;;;;;;;;;;5084057;28;20031;-66
2023/07/06 10:41:11;;;;;;;5.85;2.83;;;;;;;;;;5081849;28;20672;-67
2023/07/06 10:43:40;;;;;;;4.10;2.10;;;;;;;;;;5090507;28;20066;-67
2023/07/06 10:46:26;;;;;;;5.13;1.92;;;;;;;;;;5092170;28;20031;-67
2023/07/06 10:48:57;;;;;;;2.75;1.50;;;;;;;;;;5091515;28;20040;-67
2023/07/06 10:51:23;;;;;;;5.22;1.70;;;;;;;;;;5090795;28;20024;-66
2023/07/06 10:53:55;;;;;;;5.22;1.50;;;;;;;;;;5092166;28;20498;-67
2023/07/06 10:56:21;;;;;;;3.50;1.50;;;;;;;;;;5091686;28;20371;-67
2023/07/06 10:58:48;;;;;;;9.40;1.73;;;;;;;;;;5091253;28;20024;-66
2023/07/06 11:01:15;;;;;;;5.07;1.60;;;;;;;;;;5083988;28;20115;-66
2023/07/06 11:03:42;;;;;;;5.60;2.00;;;;;;;;;;5090669;28;20044;-66
2023/07/06 11:06:10;;;;;;;4.22;1.63;;;;;;;;;;5091119;28;20020;-67
2023/07/06 11:08:55;;;;;;;5.57;2.10;;;;;;;;;;5090822;28;20111;-67
2023/07/06 11:11:21;;;;;;;5.55;2.17;;;;;;;;;;5080528;28;20128;-67
2023/07/06 11:13:53;;;;;;;4.03;2.03;;;;;;;;;;5083664;28;20055;-67
2023/07/06 11:16:22;;;;;;;13.45;2.20;;;;;;;;;;5088309;28;20441;-67
2023/07/06 11:18:51;;;;;;;5.90;1.98;;;;;;;;;;5086077;28;20478;-67
2023/07/06 11:21:16;;;;;;;5.90;1.95;;;;;;;;;;5093641;28;20107;-67
2023/07/06 11:23:48;;;;;;;3.80;1.60;;;;;;;;;;5092686;28;20103;-67
2023/07/06 11:26:37;;;;;;;4.63;1.77;;;;;;;;;;5092783;28;20077;-68
2023/07/06 11:29:07;;;;;;;5.25;1.42;;;;;;;;;;5081475;28;20047;-67
2023/07/06 11:31:33;;;;;;;3.55;1.63;;;;;;;;;;5093149;28;20016;-67
2023/07/06 11:34:03;;;;;;;7.55;1.70;;;;;;;;;;5092013;28;20024;-67
2023/07/06 11:36:39;;;;;;;4.95;1.92;;;;;;;;;;5092453;28;20021;-67
2023/07/06 11:39:05;;;;;;;6.35;2.17;;;;;;;;;;5092524;28;20449;-67
2023/07/06 11:41:49;;;;;;;6.32;2.03;;;;;;;;;;5093563;28;20032;-67
2023/07/06 11:44:24;;;;;;;7.68;2.10;;;;;;;;;;5078917;28;20482;-67
2023/07/06 11:47:08;;;;;;;6.20;2.17;;;;;;;;;;5093062;28;20479;-68
2023/07/06 11:49:47;;;;;;;4.15;1.83;;;;;;;;;;5088406;28;20028;-68
2023/07/06 11:52:19;;;;;;;3.55;1.45;;;;;;;;;;5081895;28;20058;-68
2023/07/06 11:54:54;;;;;;;4.32;1.70;;;;;;;;;;5091173;28;20549;-68
2023/07/06 12:02:48;;;;;;;2.92;1.65;;;;;;;;;;5087050;28;20315;-67
2023/07/06 12:05:27;;;;;;;4.10;2.00;;;;;;;;;;5088449;28;20424;-69
2023/07/06 12:07:58;;;;;;;4.28;1.90;;;;;;;;;;5086672;28;20035;-67
2023/07/06 12:10:24;;;;;;;5.88;1.38;;;;;;;;;;5079325;28;20027;-68
2023/07/06 12:12:50;;;;;;;4.32;1.65;;;;;;;;;;5077506;28;20032;-68
2023/07/06 12:15:16;;;;;;;6.28;1.60;;;;;;;;;;5075362;28;20166;-68
2023/07/06 12:17:43;;;;;;;4.93;1.60;;;;;;;;;;5086574;28;20108;-68
2023/07/06 12:20:10;;;;;;;7.10;1.80;;;;;;;;;;5085678;28;20020;-68
2023/07/06 12:22:48;;;;;;;4.95;1.83;;;;;;;;;;5090905;28;20028;-68
2023/07/06 12:25:17;;;;;;;6.15;2.25;;;;;;;;;;5091311;28;20031;-67
2023/07/06 12:27:43;;;;;;;5.65;1.88;;;;;;;;;;5091150;28;20034;-68
2023/07/06 12:30:14;;;;;;;4.87;1.83;;;;;;;;;;5091856;28;20502;-68
2023/07/06 12:32:41;;;;;;;5.95;2.47;;;;;;;;;;5091565;28;20270;-68
2023/07/06 12:35:11;;;;;;;3.83;1.45;;;;;;;;;;5091633;28;20208;-67
2023/07/06 12:37:41;;;;;;;5.82;1.70;;;;;;;;;;5091638;28;20530;-68
2023/07/06 12:40:17;;;;;;;4.85;1.85;;;;;;;;;;5091555;28;20039;-68
2023/07/06 12:42:42;;;;;;;3.05;1.65;;;;;;;;;;5090690;28;20382;-68
2023/07/06 12:45:08;;;;;;;5.93;1.70;;;;;;;;;;5091372;28;20028;-68
2023/07/06 12:47:37;;;;;;;3.83;1.70;;;;;;;;;;5090529;28;20024;-68
2023/07/06 12:50:05;;;;;;;3.97;1.80;;;;;;;;;;5091629;28;20028;-68
2023/07/06 12:52:32;;;;;;;4.97;1.50;;;;;;;;;;5091202;28;20034;-68
2023/07/06 12:54:57;;;;;;;4.05;1.60;;;;;;;;;;5092140;28;20358;-68
2023/07/06 12:57:28;;;;;;;4.33;1.40;;;;;;;;;;5091612;28;20016;-67
2023/07/06 12:59:57;;;;;;;3.53;1.58;;;;;;;;;;5091582;28;20274;-68
2023/07/06 13:02:24;;;;;;;6.22;1.60;;;;;;;;;;5090710;28;20056;-68
2023/07/06 13:04:50;;;;;;;5.55;1.85;;;;;;;;;;5091864;28;20024;-69
2023/07/06 13:07:17;;;;;;;2.85;1.40;;;;;;;;;;5091218;28;20421;-69
2023/07/06 13:09:42;;;;;;;4.05;1.45;;;;;;;;;;5089632;28;20483;-69
2023/07/06 13:12:09;;;;;;;5.50;2.10;;;;;;;;;;5086001;28;20020;-67
2023/07/06 13:14:38;;;;;;;3.80;1.73;;;;;;;;;;5090584;28;20066;-69
2023/07/06 13:17:12;;;;;;;5.80;1.98;;;;;;;;;;5090525;28;20020;-67
2023/07/06 13:19:38;;;;;;;4.55;1.52;;;;;;;;;;5088980;28;20402;-68
2023/07/06 13:22:04;;;;;;;4.40;1.63;;;;;;;;;;5091891;28;20024;-68
2023/07/06 13:24:30;;;;;;;3.47;1.67;;;;;;;;;;5091353;28;20737;-70
2023/07/06 13:26:56;;;;;;;3.92;1.63;;;;;;;;;;5090701;28;20097;-68
2023/07/06 13:29:21;;;;;;;7.25;1.77;;;;;;;;;;5091222;28;20097;-69
2023/07/06 13:31:48;;;;;;;3.72;1.90;;;;;;;;;;5091252;28;20042;-67
2023/07/06 13:34:15;;;;;;;5.38;1.60;;;;;;;;;;5091057;28;20024;-66
2023/07/06 13:36:41;;;;;;;4.82;1.73;;;;;;;;;;5091233;28;20474;-69
2023/07/06 13:39:07;;;;;;;7.68;1.60;;;;;;;;;;5084479;28;20107;-68
2023/07/06 13:41:34;;;;;;;4.47;1.90;;;;;;;;;;5090210;28;20571;-67
2023/07/06 13:44:00;;;;;;;3.50;1.67;;;;;;;;;;5091695;28;20020;-70
2023/07/06 13:46:26;;;;;;;5.85;2.25;;;;;;;;;;5091362;28;20042;-68
2023/07/06 13:48:51;;;;;;;4.97;1.83;;;;;;;;;;5090615;28;20514;-68
2023/07/06 13:51:16;;;;;;;7.47;1.92;;;;;;;;;;5090782;28;20475;-68
2023/07/06 13:53:42;;;;;;;4.17;1.70;;;;;;;;;;5090608;28;20035;-68
2023/07/06 13:56:12;;;;;;;7.05;1.85;;;;;;;;;;5089989;28;20301;-68
2023/07/06 13:58:38;;;;;;;6.80;1.73;;;;;;;;;;5090409;28;20020;-68
2023/07/06 14:01:03;;;;;;;5.85;2.00;;;;;;;;;;5093785;28;20413;-68
2023/07/06 14:03:32;;;;;;;5.93;1.70;;;;;;;;;;5094147;28;20036;-68
2023/07/06 14:05:57;;;;;;;4.60;1.98;;;;;;;;;;5093593;28;20478;-68
2023/07/06 14:08:24;;;;;;;4.40;1.90;;;;;;;;;;5093594;28;20092;-68
2023/07/06 14:10:49;;;;;;;4.03;1.83;;;;;;;;;;5092948;28;20150;-68
2023/07/06 14:13:16;;;;;;;5.17;1.80;;;;;;;;;;5080638;28;20106;-68
2023/07/06 14:15:41;;;;;;;4.38;1.80;;;;;;;;;;5093732;28;20289;-68
2023/07/06 14:18:08;;;;;;;5.32;2.03;;;;;;;;;;5094226;28;20591;-68
2023/07/06 14:20:37;;;;;;;3.70;1.38;;;;;;;;;;5094387;28;20020;-68
2023/07/06 14:23:02;;;;;;;3.60;1.77;;;;;;;;;;5081354;28;20020;-68
2023/07/06 14:25:28;;;;;;;7.47;2.30;;;;;;;;;;5071227;28;20058;-67
2023/07/06 14:27:54;;;;;;;5.63;2.42;;;;;;;;;;5087604;28;20043;-68
2023/07/06 14:30:21;;;;;;;5.50;2.10;;;;;;;;;;5088922;28;20085;-68
2023/07/06 14:32:47;;;;;;;3.85;1.85;;;;;;;;;;5093793;28;20020;-68
2023/07/06 14:35:13;;;;;;;3.63;1.88;;;;;;;;;;5092833;28;20367;-67
2023/07/06 14:37:39;;;;;;;3.78;1.40;;;;;;;;;;5093326;28;20517;-68
2023/07/06 14:40:06;;;;;;;7.38;2.30;;;;;;;;;;5093615;28;20103;-68
2023/07/06 14:42:31;;;;;;;5.70;2.28;;;;;;;;;;5094382;28;20463;-71
2023/07/06 14:44:56;;;;;;;3.63;1.95;;;;;;;;;;5094064;28;20031;-67
2023/07/06 14:47:22;;;;;;;6.80;1.90;;;;;;;;;;5093775;28;20027;-67
2023/07/06 14:49:47;;;;;;;4.60;1.67;;;;;;;;;;5093513;28;20110;-67